createdAt,value
2019-02-26T00:01:59.421Z,76.90
2019-02-26T00:04:32.148Z,76.60
2019-02-26T00:07:02.157Z,77.60
2019-02-26T00:09:35.189Z,77.30
2019-02-26T00:12:04.869Z,77.60
2019-02-26T00:14:35.361Z,77.00
2019-02-26T00:17:08.630Z,76.70
2019-02-26T00:19:37.934Z,76.70
2019-02-26T00:22:09.524Z,76.60
2019-02-26T00:24:42.665Z,76.60
2019-02-26T00:27:13.719Z,76.70
2019-02-26T00:29:44.735Z,77.00
2019-02-26T00:32:18.389Z,76.90
2019-02-26T00:34:48.594Z,77.00
2019-02-26T00:37:19.990Z,77.40
2019-02-26T00:39:51.775Z,77.40
2019-02-26T00:42:24.295Z,77.70
2019-02-26T00:44:58.221Z,77.70
2019-02-26T00:47:31.845Z,77.70
2019-02-26T00:50:02.006Z,77.80
2019-02-26T00:52:34.835Z,77.80
2019-02-26T00:55:07.185Z,77.90
2019-02-26T00:57:42.542Z,77.90
2019-02-26T01:00:13.914Z,77.90
2019-02-26T01:02:44.483Z,78.00
2019-02-26T01:05:15.931Z,78.30
2019-02-26T01:07:48.897Z,78.20
2019-02-26T01:10:21.170Z,78.20
2019-02-26T01:12:51.632Z,78.40
2019-02-26T01:15:22.185Z,78.30
2019-02-26T01:17:57.131Z,78.50
2019-02-26T01:20:29.651Z,78.60
2019-02-26T01:22:59.866Z,78.70
2019-02-26T01:25:30.311Z,78.80
2019-02-26T01:28:00.737Z,78.80
2019-02-26T01:30:33.684Z,78.80
2019-02-26T01:33:04.982Z,78.90
2019-02-26T01:35:37.747Z,78.90
2019-02-26T01:38:07.950Z,79.00
2019-02-26T01:40:41.516Z,79.20
2019-02-26T01:43:11.694Z,79.10
2019-02-26T01:45:43.849Z,79.40
2019-02-26T01:48:16.713Z,79.50
2019-02-26T01:50:46.763Z,79.20
2019-02-26T01:53:19.225Z,79.20
2019-02-26T01:55:50.534Z,79.20
2019-02-26T01:58:20.984Z,79.30
2019-02-26T02:00:55.311Z,79.40
2019-02-26T02:03:25.419Z,79.50
2019-02-26T02:05:57.290Z,79.40
2019-02-26T02:08:28.045Z,79.90
2019-02-26T02:10:59.931Z,79.50
2019-02-26T02:13:32.961Z,79.80
2019-02-26T02:16:04.545Z,79.90
2019-02-26T02:18:35.446Z,80.10
2019-02-26T02:21:06.008Z,80.20
2019-02-26T02:23:36.471Z,80.30
2019-02-26T02:26:08.835Z,80.40
2019-02-26T02:28:39.177Z,80.40
2019-02-26T02:31:09.657Z,80.50
2019-02-26T02:33:40.193Z,80.80
2019-02-26T02:36:11.792Z,80.80
2019-02-26T02:38:43.341Z,81.00
2019-02-26T02:41:13.785Z,81.10
2019-02-26T02:43:44.265Z,81.10
2019-02-26T02:46:14.745Z,80.90
2019-02-26T02:48:46.049Z,81.30
2019-02-26T02:51:16.842Z,81.70
2019-02-26T02:53:47.868Z,81.50
2019-02-26T02:56:19.808Z,81.10
2019-02-26T02:58:51.523Z,81.10
2019-02-26T03:01:24.528Z,81.30
2019-02-26T03:03:56.442Z,81.30
2019-02-26T03:06:29.006Z,81.20
2019-02-26T03:08:58.989Z,81.50
2019-02-26T03:11:29.578Z,81.80
2019-02-26T03:14:00.038Z,81.90
2019-02-26T03:16:30.489Z,82.00
2019-02-26T03:19:01.176Z,82.00
2019-02-26T03:21:31.608Z,82.50
2019-02-26T03:24:03.356Z,82.50
2019-02-26T03:26:34.466Z,82.60
2019-02-26T03:29:04.906Z,82.80
2019-02-26T03:31:40.519Z,82.60
2019-02-26T03:34:14.668Z,82.70
2019-02-26T03:36:45.402Z,82.90
2019-02-26T03:39:14.970Z,82.80
2019-02-26T03:41:46.597Z,82.80
2019-02-26T03:44:17.840Z,82.70
2019-02-26T03:46:48.563Z,82.60
2019-02-26T03:49:18.989Z,82.70
2019-02-26T03:51:49.457Z,82.80
2019-02-26T03:54:19.882Z,83.10
2019-02-26T03:56:50.534Z,83.40
2019-02-26T03:59:21.333Z,83.20
2019-02-26T04:01:52.147Z,83.50
2019-02-26T04:04:23.095Z,83.70
2019-02-26T04:06:55.891Z,83.80
2019-02-26T04:09:26.909Z,84.20
2019-02-26T04:11:57.345Z,84.10
2019-02-26T04:14:28.780Z,84.20
2019-02-26T04:17:01.669Z,84.00
2019-02-26T04:19:32.661Z,83.80
2019-02-26T04:22:27.819Z,83.90
2019-02-26T04:25:04.795Z,84.00
2019-02-26T04:27:53.371Z,83.80
2019-02-26T04:30:58.929Z,83.80
2019-02-26T04:34:08.530Z,83.80
2019-02-26T04:37:16.445Z,83.80
2019-02-26T04:40:11.911Z,83.90
2019-02-26T04:43:31.331Z,83.90
2019-02-26T04:46:31.048Z,84.20
2019-02-26T04:49:00.595Z,84.20
2019-02-26T04:51:34.284Z,84.40
2019-02-26T04:54:04.870Z,84.50
2019-02-26T04:56:37.078Z,84.40
2019-02-26T04:59:09.925Z,85.10
2019-02-26T05:01:40.153Z,84.70
2019-02-26T05:04:10.809Z,84.80
2019-02-26T05:06:41.273Z,84.70
2019-02-26T05:09:11.709Z,84.60
2019-02-26T05:11:42.178Z,84.60
2019-02-26T05:14:15.467Z,84.70
2019-02-26T05:16:45.444Z,84.70
2019-02-26T05:19:17.017Z,85.00
2019-02-26T05:21:48.052Z,84.90
2019-02-26T05:24:21.359Z,84.90
2019-02-26T05:26:51.869Z,84.90
2019-02-26T05:29:22.393Z,84.90
2019-02-26T05:31:55.440Z,85.00
2019-02-26T05:34:25.955Z,84.80
2019-02-26T05:36:56.586Z,84.60
2019-02-26T05:39:28.804Z,85.00
2019-02-26T05:42:01.253Z,85.80
2019-02-26T05:44:31.753Z,85.90
2019-02-26T05:47:02.568Z,85.40
2019-02-26T05:49:35.317Z,85.30
2019-02-26T05:52:07.120Z,85.40
2019-02-26T05:54:37.670Z,85.60
2019-02-26T05:57:10.812Z,86.10
2019-02-26T05:59:41.988Z,85.90
2019-02-26T06:02:14.185Z,85.90
2019-02-26T06:04:46.728Z,86.90
2019-02-26T06:07:21.704Z,85.90
2019-02-26T06:09:51.665Z,85.70
2019-02-26T06:12:22.668Z,85.70
2019-02-26T06:14:54.026Z,86.10
2019-02-26T06:17:25.636Z,86.20
2019-02-26T06:20:02.086Z,86.10
2019-02-26T06:22:32.165Z,86.10
2019-02-26T06:25:07.006Z,86.30
2019-02-26T06:27:34.856Z,86.20
2019-02-26T06:30:07.358Z,86.20
2019-02-26T06:32:40.163Z,86.00
2019-02-26T06:35:13.672Z,86.10
2019-02-26T06:37:44.724Z,85.90
2019-02-26T06:40:15.239Z,85.90
2019-02-26T06:42:45.859Z,85.90
2019-02-26T06:45:16.979Z,85.90
2019-02-26T06:47:48.479Z,86.00
2019-02-26T06:50:19.128Z,86.40
2019-02-26T06:52:50.694Z,86.40
2019-02-26T06:55:19.762Z,86.70
2019-02-26T06:57:52.172Z,86.20
2019-02-26T07:00:23.780Z,86.50
2019-02-26T07:02:51.006Z,86.40
2019-02-26T07:05:23.830Z,86.50
2019-02-26T07:07:54.084Z,86.20
2019-02-26T07:10:26.001Z,86.30
2019-02-26T07:12:54.010Z,86.80
2019-02-26T07:15:23.262Z,86.80
2019-02-26T07:17:52.503Z,86.70
2019-02-26T07:20:21.768Z,87.00
2019-02-26T07:22:51.614Z,87.10
2019-02-26T07:25:21.021Z,87.20
2019-02-26T07:27:51.310Z,87.60
2019-02-26T07:30:21.222Z,87.60
2019-02-26T07:32:50.622Z,88.10
2019-02-26T07:35:19.902Z,88.00
2019-02-26T07:37:49.178Z,88.20
2019-02-26T07:40:18.785Z,88.50
2019-02-26T07:42:49.275Z,88.20
2019-02-26T07:45:21.864Z,88.40
2019-02-26T07:47:51.479Z,87.40
2019-02-26T07:50:20.921Z,87.20
2019-02-26T07:52:52.034Z,86.80
2019-02-26T07:55:21.085Z,87.00
2019-02-26T07:57:51.231Z,86.50
2019-02-26T08:00:21.651Z,86.40
2019-02-26T08:02:52.069Z,86.20
2019-02-26T08:05:25.686Z,86.40
2019-02-26T08:07:54.425Z,85.90
2019-02-26T08:10:24.143Z,85.60
2019-02-26T08:12:53.392Z,85.30
2019-02-26T08:15:22.660Z,85.00
2019-02-26T08:17:56.020Z,84.70
2019-02-26T08:20:23.165Z,84.50
2019-02-26T08:22:54.130Z,84.40
2019-02-26T08:25:23.384Z,84.80
2019-02-26T08:27:53.946Z,84.20
2019-02-26T08:30:26.060Z,83.60
2019-02-26T08:32:56.422Z,83.60
2019-02-26T08:35:25.599Z,84.80
2019-02-26T08:37:55.822Z,85.20
2019-02-26T08:40:25.065Z,84.10
2019-02-26T08:42:54.337Z,84.40
2019-02-26T08:45:25.783Z,85.00
2019-02-26T08:47:54.893Z,83.90
2019-02-26T08:50:24.148Z,83.00
2019-02-26T08:52:55.469Z,83.00
2019-02-26T08:55:24.668Z,83.10
2019-02-26T08:57:56.407Z,83.20
2019-02-26T09:00:25.017Z,83.00
2019-02-26T09:02:56.714Z,81.20
2019-02-26T09:05:28.236Z,81.20
2019-02-26T09:07:56.774Z,80.40
2019-02-26T09:10:26.032Z,79.50
2019-02-26T09:12:55.285Z,79.60
2019-02-26T09:15:24.528Z,79.90
2019-02-26T09:17:53.844Z,79.50
2019-02-26T09:20:23.084Z,79.40
2019-02-26T09:22:54.447Z,78.90
2019-02-26T09:25:26.033Z,77.40
2019-02-26T09:27:54.618Z,76.80
2019-02-26T09:30:24.917Z,76.50
2019-02-26T09:32:55.375Z,77.00
2019-02-26T09:35:28.864Z,76.10
2019-02-26T09:38:00.774Z,75.60
2019-02-26T09:40:34.200Z,75.30
2019-02-26T09:43:02.518Z,74.30
2019-02-26T09:45:32.990Z,74.30
2019-02-26T09:48:03.453Z,73.80
2019-02-26T09:50:36.099Z,74.00
2019-02-26T09:53:06.072Z,73.40
2019-02-26T09:55:36.546Z,72.30
2019-02-26T09:58:06.992Z,71.20
2019-02-26T10:00:37.697Z,71.10
2019-02-26T10:03:10.312Z,70.90
2019-02-26T10:05:40.499Z,70.10
2019-02-26T10:08:10.968Z,70.40
2019-02-26T10:10:41.427Z,70.10
2019-02-26T10:13:11.889Z,70.10
2019-02-26T10:15:44.323Z,68.80
2019-02-26T10:18:14.490Z,67.80
2019-02-26T10:20:47.369Z,67.30
2019-02-26T10:23:19.199Z,67.30
2019-02-26T10:25:53.050Z,66.10
2019-02-26T10:28:22.293Z,64.20
2019-02-26T10:30:55.071Z,63.70
2019-02-26T10:33:25.383Z,61.90
2019-02-26T10:35:55.853Z,61.70
2019-02-26T10:38:30.900Z,62.00
2019-02-26T10:40:59.790Z,60.70
2019-02-26T10:43:30.914Z,59.50
2019-02-26T10:46:01.796Z,58.70
2019-02-26T10:48:33.321Z,58.40
2019-02-26T10:51:06.711Z,58.60
2019-02-26T10:53:36.325Z,58.30
2019-02-26T10:56:07.070Z,57.90
2019-02-26T10:58:37.585Z,57.80
2019-02-26T11:01:08.153Z,58.00
2019-02-26T11:03:43.419Z,55.60
2019-02-26T11:06:14.468Z,55.30
2019-02-26T11:08:43.546Z,54.30
2019-02-26T11:11:16.557Z,53.20
2019-02-26T11:13:50.969Z,51.80
2019-02-26T11:16:25.189Z,50.10
2019-02-26T11:18:50.863Z,50.70
2019-02-26T11:21:21.309Z,49.10
2019-02-26T11:23:51.778Z,48.10
2019-02-26T11:26:22.295Z,46.20
2019-02-26T11:28:52.746Z,45.80
2019-02-26T11:31:25.516Z,45.20
2019-02-26T11:33:57.279Z,44.30
2019-02-26T11:36:28.186Z,43.50
2019-02-26T11:39:02.274Z,42.30
2019-02-26T11:41:35.870Z,41.60
2019-02-26T11:44:09.865Z,42.10
2019-02-26T11:46:38.274Z,40.60
2019-02-26T11:49:09.389Z,40.90
2019-02-26T11:51:42.473Z,40.90
2019-02-26T11:54:15.015Z,40.80
2019-02-26T11:56:47.395Z,39.30
2019-02-26T11:59:19.403Z,38.40
2019-02-26T12:01:49.794Z,38.00
2019-02-26T12:04:20.482Z,37.30
2019-02-26T12:06:50.930Z,36.20
2019-02-26T12:09:21.389Z,37.20
2019-02-26T12:11:51.845Z,37.10
2019-02-26T12:14:22.279Z,36.50
2019-02-26T12:16:52.988Z,36.90
2019-02-26T12:19:25.661Z,36.70
2019-02-26T12:21:57.525Z,36.70
2019-02-26T12:24:30.776Z,35.80
2019-02-26T12:27:07.249Z,34.80
2019-02-26T12:29:40.211Z,34.50
2019-02-26T12:32:10.850Z,34.80
2019-02-26T12:34:44.623Z,33.40
2019-02-26T12:37:13.785Z,32.70
2019-02-26T12:39:46.502Z,31.50
2019-02-26T12:42:18.464Z,31.10
2019-02-26T12:44:48.929Z,31.30
2019-02-26T12:47:21.768Z,30.70
2019-02-26T12:49:51.587Z,30.40
2019-02-26T12:52:26.499Z,31.00
2019-02-26T12:54:54.952Z,30.20
2019-02-26T12:57:28.883Z,29.80
2019-02-26T12:59:59.344Z,28.90
2019-02-26T13:02:30.755Z,29.00
2019-02-26T13:05:01.198Z,29.10
2019-02-26T13:07:32.724Z,28.40
2019-02-26T13:10:04.119Z,28.60
2019-02-26T13:12:35.097Z,27.90
2019-02-26T13:15:09.760Z,28.10
2019-02-26T13:17:38.754Z,28.30
2019-02-26T13:20:11.865Z,27.80
2019-02-26T13:25:17.133Z,27.80
2019-02-26T13:27:48.222Z,27.90
2019-02-26T13:30:21.226Z,28.00
2019-02-26T13:32:57.224Z,28.30
2019-02-26T13:35:23.985Z,27.80
2019-02-26T13:37:54.694Z,27.80
2019-02-26T13:40:25.296Z,27.00
2019-02-26T13:45:28.149Z,27.20
2019-02-26T13:48:01.274Z,27.70
2019-02-26T13:50:31.102Z,27.10
2019-02-26T13:53:01.561Z,26.60
2019-02-26T13:55:33.004Z,26.70
2019-02-26T13:58:11.386Z,26.20
2019-02-26T14:00:36.021Z,25.80
2019-02-26T14:03:06.497Z,26.20
2019-02-26T14:05:38.378Z,26.10
2019-02-26T14:08:08.937Z,26.10
2019-02-26T14:10:39.395Z,26.50
2019-02-26T14:13:09.851Z,25.80
2019-02-26T14:15:40.829Z,26.30
2019-02-26T14:18:11.281Z,27.20
2019-02-26T14:20:42.642Z,28.20
2019-02-26T14:23:13.458Z,29.00
2019-02-26T14:25:44.313Z,29.80
2019-02-26T14:28:15.094Z,30.30
2019-02-26T14:30:46.013Z,31.10
2019-02-26T14:33:16.461Z,32.10
2019-02-26T14:35:46.986Z,32.80
2019-02-26T14:38:18.399Z,33.20
2019-02-26T14:40:48.843Z,34.80
2019-02-26T14:43:19.277Z,34.90
2019-02-26T14:45:49.724Z,35.30
2019-02-26T14:48:20.429Z,36.00
2019-02-26T14:50:50.873Z,35.90
2019-02-26T14:53:22.306Z,35.50
2019-02-26T14:55:53.180Z,35.30
2019-02-26T14:58:23.754Z,35.20
2019-02-26T15:00:57.657Z,35.40
2019-02-26T15:03:26.341Z,35.30
2019-02-26T15:05:56.785Z,34.70
2019-02-26T15:08:27.698Z,35.60
2019-02-26T15:10:58.441Z,35.10
2019-02-26T15:13:29.222Z,35.40
2019-02-26T15:15:59.655Z,35.20
2019-02-26T15:18:30.216Z,36.20
2019-02-26T15:21:00.662Z,36.30
2019-02-26T15:23:31.387Z,36.40
2019-02-26T15:26:01.835Z,36.80
2019-02-26T15:28:32.285Z,36.80
2019-02-26T15:31:02.758Z,35.80
2019-02-26T15:33:33.216Z,35.70
2019-02-26T15:36:03.654Z,35.70
2019-02-26T15:38:34.104Z,36.30
2019-02-26T15:41:04.942Z,36.20
2019-02-26T15:43:35.632Z,36.50
2019-02-26T15:46:06.413Z,36.80
2019-02-26T15:48:37.718Z,36.90
2019-02-26T15:51:14.382Z,37.00
2019-02-26T15:53:40.330Z,37.10
2019-02-26T15:56:10.773Z,37.40
2019-02-26T15:58:41.273Z,39.70
2019-02-26T16:01:12.791Z,39.80
2019-02-26T16:03:45.279Z,40.30
2019-02-26T16:06:15.773Z,40.80
2019-02-26T16:08:46.362Z,41.30
2019-02-26T16:11:16.806Z,41.50
2019-02-26T16:13:47.874Z,42.10
2019-02-26T16:16:18.386Z,42.50
2019-02-26T16:18:48.838Z,42.70
2019-02-26T16:21:19.521Z,43.20
2019-02-26T16:23:50.006Z,43.50
2019-02-26T16:26:20.478Z,43.70
2019-02-26T16:28:50.940Z,43.90
2019-02-26T16:31:22.045Z,43.60
2019-02-26T16:33:52.518Z,45.90
2019-02-26T16:36:22.978Z,45.90
2019-02-26T16:38:53.460Z,46.40
2019-02-26T16:41:24.043Z,46.80
2019-02-26T16:43:54.535Z,46.90
2019-02-26T16:46:24.997Z,47.30
2019-02-26T16:48:55.788Z,47.50
2019-02-26T16:51:26.227Z,48.30
2019-02-26T16:53:56.770Z,48.60
2019-02-26T16:56:27.232Z,49.10
2019-02-26T16:58:57.861Z,49.60
2019-02-26T17:01:28.395Z,49.90
2019-02-26T17:03:59.817Z,50.20
2019-02-26T17:06:30.505Z,50.60
2019-02-26T17:09:01.141Z,50.90
2019-02-26T17:11:33.181Z,51.50
2019-02-26T17:14:05.065Z,51.90
2019-02-26T17:16:35.502Z,52.20
2019-02-26T17:19:05.952Z,52.50
2019-02-26T17:21:36.374Z,52.90
2019-02-26T17:24:06.891Z,53.80
2019-02-26T17:26:39.242Z,54.10
2019-02-26T17:29:10.008Z,54.50
2019-02-26T17:31:40.455Z,54.50
2019-02-26T17:34:10.943Z,55.30
2019-02-26T17:36:41.418Z,55.50
2019-02-26T17:39:11.874Z,55.60
2019-02-26T17:41:44.695Z,55.90
2019-02-26T17:44:14.563Z,56.20
2019-02-26T17:46:44.998Z,56.60
2019-02-26T17:49:15.453Z,57.00
2019-02-26T17:51:45.913Z,57.00
2019-02-26T17:54:16.590Z,57.30
2019-02-26T17:56:47.054Z,57.40
2019-02-26T17:59:17.510Z,57.70
2019-02-26T18:01:50.346Z,57.90
2019-02-26T18:04:23.054Z,58.10
2019-02-26T18:06:52.934Z,58.70
2019-02-26T18:09:23.393Z,58.70
2019-02-26T18:11:53.841Z,59.00
2019-02-26T18:14:24.317Z,59.00
2019-02-26T18:16:54.778Z,58.80
2019-02-26T18:19:25.472Z,59.00
2019-02-26T18:21:55.905Z,59.00
2019-02-26T18:24:26.394Z,59.10
2019-02-26T18:26:56.841Z,59.10
2019-02-26T18:29:27.344Z,59.20
2019-02-26T18:31:57.785Z,59.20
2019-02-26T18:34:28.286Z,59.30
2019-02-26T18:36:58.740Z,59.80
2019-02-26T18:39:29.575Z,60.00
2019-02-26T18:42:00.564Z,60.20
2019-02-26T18:44:31.104Z,60.40
2019-02-26T18:47:01.705Z,60.50
2019-02-26T18:49:32.868Z,60.70
2019-02-26T18:52:03.700Z,61.10
2019-02-26T18:54:34.242Z,61.40
2019-02-26T18:57:04.797Z,61.60
2019-02-26T18:59:35.308Z,61.70
2019-02-26T19:02:05.770Z,62.10
2019-02-26T19:04:36.214Z,62.30
2019-02-26T19:07:06.655Z,62.50
2019-02-26T19:09:37.168Z,62.70
2019-02-26T19:12:07.670Z,62.70
2019-02-26T19:14:41.983Z,62.90
2019-02-26T19:17:10.376Z,63.50
2019-02-26T19:19:42.059Z,63.50
2019-02-26T19:22:12.975Z,63.40
2019-02-26T19:24:43.588Z,63.70
2019-02-26T19:27:14.048Z,64.70
2019-02-26T19:29:44.540Z,64.10
2019-02-26T19:32:15.719Z,64.30
2019-02-26T19:34:47.937Z,64.60
2019-02-26T19:37:19.124Z,64.50
2019-02-26T19:39:50.796Z,64.70
2019-02-26T19:42:21.110Z,64.90
2019-02-26T19:44:50.517Z,65.20
2019-02-26T19:47:20.516Z,65.20
2019-02-26T19:49:51.014Z,65.30
2019-02-26T19:52:20.361Z,65.30
2019-02-26T19:54:49.660Z,65.60
2019-02-26T19:57:18.990Z,65.70
2019-02-26T19:59:48.648Z,65.80
2019-02-26T20:02:17.893Z,65.90
2019-02-26T20:04:49.776Z,66.40
2019-02-26T20:07:19.349Z,66.20
2019-02-26T20:09:48.749Z,66.40
2019-02-26T20:12:18.126Z,66.70
2019-02-26T20:14:48.990Z,67.00
2019-02-26T20:17:18.715Z,67.30
2019-02-26T20:19:48.149Z,67.40
2019-02-26T20:22:18.943Z,67.60
2019-02-26T20:24:48.397Z,67.40
2019-02-26T20:27:21.616Z,67.40
2019-02-26T20:29:48.995Z,67.40
2019-02-26T20:32:18.983Z,67.70
2019-02-26T20:34:48.557Z,68.00
2019-02-26T20:37:17.962Z,67.90
2019-02-26T20:39:47.658Z,68.00
2019-02-26T20:42:17.085Z,68.50
2019-02-26T20:44:46.517Z,68.10
2019-02-26T20:47:16.046Z,68.00
2019-02-26T20:49:46.306Z,67.90
2019-02-26T20:52:17.466Z,68.40
2019-02-26T20:54:46.902Z,68.10
2019-02-26T20:57:16.455Z,67.90
2019-02-26T20:59:45.934Z,68.20
2019-02-26T21:02:15.361Z,68.30
2019-02-26T21:04:45.211Z,68.70
2019-02-26T21:07:14.740Z,69.20
2019-02-26T21:09:44.170Z,69.90
2019-02-26T21:12:13.605Z,69.50
2019-02-26T21:14:43.128Z,70.00
2019-02-26T21:17:12.598Z,70.30
2019-02-26T21:19:42.374Z,70.50
2019-02-26T21:22:12.102Z,70.30
2019-02-26T21:24:42.183Z,70.20
2019-02-26T21:27:12.119Z,70.20
2019-02-26T21:29:41.681Z,70.10
2019-02-26T21:32:11.054Z,70.90
2019-02-26T21:34:40.506Z,71.20
2019-02-26T21:37:10.111Z,71.10
2019-02-26T21:39:46.974Z,70.90
2019-02-26T21:42:16.466Z,71.50
2019-02-26T21:44:46.010Z,71.70
2019-02-26T21:47:15.486Z,71.10
2019-02-26T21:49:46.583Z,71.10
2019-02-26T21:52:16.037Z,71.10
2019-02-26T21:54:45.754Z,70.90
2019-02-26T21:57:15.386Z,71.10
2019-02-26T21:59:55.787Z,71.60
2019-02-26T22:02:25.423Z,71.70
2019-02-26T22:04:55.089Z,71.60
2019-02-26T22:07:24.569Z,72.60
2019-02-26T22:09:54.173Z,71.90
2019-02-26T22:12:24.118Z,71.90
2019-02-26T22:14:54.339Z,72.40
2019-02-26T22:17:25.334Z,72.60
2019-02-26T22:19:55.630Z,72.30
2019-02-26T22:22:26.213Z,72.90
2019-02-26T22:24:57.786Z,72.70
2019-02-26T22:27:27.310Z,73.00
2019-02-26T22:29:56.814Z,72.90
2019-02-26T22:32:26.430Z,72.90
2019-02-26T22:34:56.742Z,73.00
2019-02-26T22:37:26.245Z,73.10
2019-02-26T22:39:55.914Z,73.30
2019-02-26T22:42:26.548Z,73.30
2019-02-26T22:44:56.218Z,73.50
2019-02-26T22:47:25.694Z,74.50
2019-02-26T22:49:55.195Z,73.90
2019-02-26T22:52:25.242Z,73.80
2019-02-26T22:54:54.904Z,74.00
2019-02-26T22:57:24.326Z,74.00
2019-02-26T22:59:53.794Z,74.20
2019-02-26T23:02:24.117Z,74.50
2019-02-26T23:04:53.822Z,74.70
2019-02-26T23:07:23.341Z,74.50
2019-02-26T23:09:54.004Z,74.70
2019-02-26T23:12:24.697Z,74.60
2019-02-26T23:14:54.242Z,74.70
2019-02-26T23:17:24.971Z,74.80
2019-02-26T23:19:55.133Z,75.00
2019-02-26T23:22:24.673Z,74.90
2019-02-26T23:24:54.121Z,75.00
2019-02-26T23:27:23.692Z,75.20
2019-02-26T23:29:53.220Z,75.30
2019-02-26T23:32:23.561Z,75.50
2019-02-26T23:35:04.435Z,75.80
2019-02-26T23:37:34.543Z,76.30
2019-02-26T23:40:05.395Z,76.00
2019-02-26T23:42:38.603Z,76.30
2019-02-26T23:45:07.474Z,76.10
2019-02-26T23:47:36.917Z,76.00
2019-02-26T23:50:06.363Z,76.20
2019-02-26T23:52:35.897Z,76.90
2019-02-26T23:55:05.346Z,77.20
2019-02-26T23:57:34.782Z,77.30
